sensor_id;sensor_type;location;lat;lon;timestamp;P1;durP1;ratioP1;P2;durP2;ratioP2
74612;SDS011;63119;51.788;8.824;2023-05-13T00:00:42;8.63;;;3.83;;
74612;SDS011;63119;51.788;8.824;2023-05-13T00:03:07;5.00;;;3.77;;
74612;SDS011;63119;51.788;8.824;2023-05-13T00:05:33;6.33;;;3.80;;
74612;SDS011;63119;51.788;8.824;2023-05-13T00:07:58;6.03;;;3.80;;
74612;SDS011;63119;51.788;8.824;2023-05-13T00:10:30;7.97;;;3.95;;
74612;SDS011;63119;51.788;8.824;2023-05-13T00:12:57;6.18;;;3.53;;
74612;SDS011;63119;51.788;8.824;2023-05-13T00:15:22;9.33;;;3.83;;
74612;SDS011;63119;51.788;8.824;2023-05-13T00:17:47;6.57;;;3.60;;
74612;SDS011;63119;51.788;8.824;2023-05-13T00:20:12;8.00;;;4.50;;
74612;SDS011;63119;51.788;8.824;2023-05-13T00:22:38;9.00;;;3.77;;
74612;SDS011;63119;51.788;8.824;2023-05-13T00:25:03;7.17;;;3.63;;
74612;SDS011;63119;51.788;8.824;2023-05-13T00:27:28;5.57;;;3.35;;
74612;SDS011;63119;51.788;8.824;2023-05-13T00:29:56;6.65;;;4.13;;
74612;SDS011;63119;51.788;8.824;2023-05-13T00:32:23;6.57;;;3.55;;
74612;SDS011;63119;51.788;8.824;2023-05-13T00:34:48;9.17;;;3.40;;
74612;SDS011;63119;51.788;8.824;2023-05-13T00:37:14;4.20;;;3.33;;
74612;SDS011;63119;51.788;8.824;2023-05-13T00:39:39;8.90;;;3.92;;
74612;SDS011;63119;51.788;8.824;2023-05-13T00:42:05;7.13;;;4.35;;
74612;SDS011;63119;51.788;8.824;2023-05-13T00:44:31;5.28;;;3.60;;
74612;SDS011;63119;51.788;8.824;2023-05-13T00:46:56;7.50;;;4.03;;
74612;SDS011;63119;51.788;8.824;2023-05-13T00:49:22;6.50;;;3.67;;
74612;SDS011;63119;51.788;8.824;2023-05-13T00:51:47;6.00;;;3.50;;
74612;SDS011;63119;51.788;8.824;2023-05-13T00:54:14;5.68;;;3.53;;
74612;SDS011;63119;51.788;8.824;2023-05-13T00:56:39;5.28;;;3.78;;
74612;SDS011;63119;51.788;8.824;2023-05-13T00:59:05;6.17;;;4.13;;
74612;SDS011;63119;51.788;8.824;2023-05-13T01:04:05;5.00;;;3.75;;
74612;SDS011;63119;51.788;8.824;2023-05-13T01:10:11;6.32;;;3.33;;
74612;SDS011;63119;51.788;8.824;2023-05-13T01:12:44;7.45;;;3.38;;
74612;SDS011;63119;51.788;8.824;2023-05-13T01:15:14;8.07;;;4.03;;
74612;SDS011;63119;51.788;8.824;2023-05-13T01:20:40;5.35;;;3.50;;
74612;SDS011;63119;51.788;8.824;2023-05-13T01:23:06;9.20;;;3.88;;
74612;SDS011;63119;51.788;8.824;2023-05-13T01:25:32;6.90;;;3.42;;
74612;SDS011;63119;51.788;8.824;2023-05-13T01:27:57;6.87;;;3.47;;
74612;SDS011;63119;51.788;8.824;2023-05-13T01:30:23;6.93;;;3.92;;
74612;SDS011;63119;51.788;8.824;2023-05-13T01:32:49;7.03;;;3.58;;
74612;SDS011;63119;51.788;8.824;2023-05-13T01:35:15;6.75;;;3.70;;
74612;SDS011;63119;51.788;8.824;2023-05-13T01:37:41;5.07;;;3.20;;
74612;SDS011;63119;51.788;8.824;2023-05-13T01:40:07;6.05;;;3.42;;
74612;SDS011;63119;51.788;8.824;2023-05-13T01:42:33;6.15;;;3.08;;
74612;SDS011;63119;51.788;8.824;2023-05-13T01:44:59;6.70;;;3.60;;
74612;SDS011;63119;51.788;8.824;2023-05-13T01:47:24;5.25;;;3.42;;
74612;SDS011;63119;51.788;8.824;2023-05-13T01:49:49;6.53;;;3.30;;
74612;SDS011;63119;51.788;8.824;2023-05-13T01:52:15;6.83;;;3.67;;
74612;SDS011;63119;51.788;8.824;2023-05-13T01:54:40;6.47;;;3.53;;
74612;SDS011;63119;51.788;8.824;2023-05-13T01:57:05;6.27;;;3.33;;
74612;SDS011;63119;51.788;8.824;2023-05-13T01:59:30;6.03;;;4.00;;
74612;SDS011;63119;51.788;8.824;2023-05-13T02:01:56;5.87;;;3.60;;
74612;SDS011;63119;51.788;8.824;2023-05-13T02:04:21;4.87;;;3.53;;
74612;SDS011;63119;51.788;8.824;2023-05-13T02:06:46;6.10;;;3.60;;
74612;SDS011;63119;51.788;8.824;2023-05-13T02:09:12;4.75;;;3.40;;
74612;SDS011;63119;51.788;8.824;2023-05-13T02:11:37;7.53;;;3.45;;
74612;SDS011;63119;51.788;8.824;2023-05-13T02:14:03;5.65;;;3.83;;
74612;SDS011;63119;51.788;8.824;2023-05-13T02:16:28;5.73;;;3.57;;
74612;SDS011;63119;51.788;8.824;2023-05-13T02:18:54;6.10;;;3.63;;
74612;SDS011;63119;51.788;8.824;2023-05-13T02:21:19;4.50;;;3.47;;
74612;SDS011;63119;51.788;8.824;2023-05-13T02:23:44;6.53;;;3.60;;
74612;SDS011;63119;51.788;8.824;2023-05-13T02:26:09;6.47;;;3.57;;
74612;SDS011;63119;51.788;8.824;2023-05-13T02:28:35;5.00;;;4.20;;
74612;SDS011;63119;51.788;8.824;2023-05-13T02:31:00;7.45;;;4.03;;
74612;SDS011;63119;51.788;8.824;2023-05-13T02:33:26;7.93;;;3.80;;
74612;SDS011;63119;51.788;8.824;2023-05-13T02:35:51;6.50;;;4.47;;
74612;SDS011;63119;51.788;8.824;2023-05-13T02:38:16;8.93;;;4.53;;
74612;SDS011;63119;51.788;8.824;2023-05-13T02:40:42;6.10;;;4.47;;
74612;SDS011;63119;51.788;8.824;2023-05-13T02:43:08;9.80;;;4.80;;
74612;SDS011;63119;51.788;8.824;2023-05-13T02:45:33;5.83;;;4.27;;
74612;SDS011;63119;51.788;8.824;2023-05-13T02:47:58;8.87;;;4.70;;
74612;SDS011;63119;51.788;8.824;2023-05-13T02:50:23;10.30;;;4.20;;
74612;SDS011;63119;51.788;8.824;2023-05-13T02:52:49;7.90;;;4.27;;
74612;SDS011;63119;51.788;8.824;2023-05-13T02:55:14;6.73;;;4.50;;
74612;SDS011;63119;51.788;8.824;2023-05-13T02:57:40;5.17;;;4.30;;
74612;SDS011;63119;51.788;8.824;2023-05-13T03:00:06;6.10;;;3.95;;
74612;SDS011;63119;51.788;8.824;2023-05-13T03:02:33;6.68;;;4.70;;
74612;SDS011;63119;51.788;8.824;2023-05-13T03:04:58;10.00;;;4.78;;
74612;SDS011;63119;51.788;8.824;2023-05-13T03:07:24;8.53;;;4.93;;
74612;SDS011;63119;51.788;8.824;2023-05-13T03:09:49;8.13;;;4.57;;
74612;SDS011;63119;51.788;8.824;2023-05-13T03:12:14;5.78;;;4.07;;
74612;SDS011;63119;51.788;8.824;2023-05-13T03:14:40;7.63;;;4.75;;
74612;SDS011;63119;51.788;8.824;2023-05-13T03:17:06;7.80;;;5.35;;
74612;SDS011;63119;51.788;8.824;2023-05-13T03:19:32;8.70;;;5.13;;
74612;SDS011;63119;51.788;8.824;2023-05-13T03:24:25;7.10;;;4.53;;
74612;SDS011;63119;51.788;8.824;2023-05-13T03:26:50;7.83;;;5.53;;
74612;SDS011;63119;51.788;8.824;2023-05-13T03:29:15;7.73;;;4.87;;
74612;SDS011;63119;51.788;8.824;2023-05-13T03:31:41;9.87;;;5.10;;
74612;SDS011;63119;51.788;8.824;2023-05-13T03:34:06;7.43;;;5.10;;
74612;SDS011;63119;51.788;8.824;2023-05-13T03:36:31;9.23;;;5.53;;
74612;SDS011;63119;51.788;8.824;2023-05-13T03:38:56;7.30;;;5.17;;
74612;SDS011;63119;51.788;8.824;2023-05-13T03:41:22;9.50;;;5.57;;
74612;SDS011;63119;51.788;8.824;2023-05-13T03:43:47;7.60;;;5.60;;
74612;SDS011;63119;51.788;8.824;2023-05-13T03:46:12;7.97;;;5.60;;
74612;SDS011;63119;51.788;8.824;2023-05-13T03:48:37;7.97;;;4.83;;
74612;SDS011;63119;51.788;8.824;2023-05-13T03:51:03;9.17;;;5.90;;
74612;SDS011;63119;51.788;8.824;2023-05-13T03:53:28;9.10;;;5.40;;
74612;SDS011;63119;51.788;8.824;2023-05-13T03:55:53;9.80;;;5.13;;
74612;SDS011;63119;51.788;8.824;2023-05-13T03:58:18;8.43;;;5.20;;
74612;SDS011;63119;51.788;8.824;2023-05-13T04:00:46;9.77;;;5.50;;
74612;SDS011;63119;51.788;8.824;2023-05-13T04:03:12;9.38;;;5.45;;
74612;SDS011;63119;51.788;8.824;2023-05-13T04:05:38;8.45;;;5.00;;
74612;SDS011;63119;51.788;8.824;2023-05-13T04:08:03;7.45;;;5.68;;
74612;SDS011;63119;51.788;8.824;2023-05-13T04:10:28;8.35;;;5.53;;
74612;SDS011;63119;51.788;8.824;2023-05-13T04:12:54;11.77;;;6.68;;
74612;SDS011;63119;51.788;8.824;2023-05-13T04:15:19;10.87;;;6.93;;
74612;SDS011;63119;51.788;8.824;2023-05-13T04:17:44;10.47;;;6.40;;
74612;SDS011;63119;51.788;8.824;2023-05-13T04:20:10;10.43;;;6.70;;
74612;SDS011;63119;51.788;8.824;2023-05-13T04:22:35;10.57;;;6.57;;
74612;SDS011;63119;51.788;8.824;2023-05-13T04:25:00;9.33;;;5.80;;
74612;SDS011;63119;51.788;8.824;2023-05-13T04:27:26;10.13;;;6.30;;
74612;SDS011;63119;51.788;8.824;2023-05-13T04:29:51;13.73;;;6.67;;
74612;SDS011;63119;51.788;8.824;2023-05-13T04:32:16;12.13;;;6.40;;
74612;SDS011;63119;51.788;8.824;2023-05-13T04:34:46;8.38;;;6.15;;
74612;SDS011;63119;51.788;8.824;2023-05-13T04:37:12;9.98;;;6.20;;
74612;SDS011;63119;51.788;8.824;2023-05-13T04:39:37;9.03;;;5.70;;
74612;SDS011;63119;51.788;8.824;2023-05-13T04:42:02;13.00;;;6.57;;
74612;SDS011;63119;51.788;8.824;2023-05-13T04:44:28;10.50;;;6.77;;
74612;SDS011;63119;51.788;8.824;2023-05-13T04:46:53;9.60;;;6.53;;
74612;SDS011;63119;51.788;8.824;2023-05-13T04:49:18;8.07;;;5.53;;
74612;SDS011;63119;51.788;8.824;2023-05-13T04:51:43;10.70;;;5.50;;
74612;SDS011;63119;51.788;8.824;2023-05-13T04:54:09;9.57;;;5.50;;
74612;SDS011;63119;51.788;8.824;2023-05-13T04:56:34;8.43;;;4.87;;
74612;SDS011;63119;51.788;8.824;2023-05-13T04:58:59;12.13;;;6.05;;
74612;SDS011;63119;51.788;8.824;2023-05-13T05:01:24;7.83;;;5.10;;
74612;SDS011;63119;51.788;8.824;2023-05-13T05:03:50;8.67;;;5.43;;
74612;SDS011;63119;51.788;8.824;2023-05-13T05:06:15;9.40;;;5.30;;
74612;SDS011;63119;51.788;8.824;2023-05-13T05:08:40;9.17;;;5.40;;
74612;SDS011;63119;51.788;8.824;2023-05-13T05:11:05;13.30;;;5.03;;
74612;SDS011;63119;51.788;8.824;2023-05-13T05:13:31;7.37;;;4.70;;
74612;SDS011;63119;51.788;8.824;2023-05-13T05:15:56;10.50;;;5.17;;
74612;SDS011;63119;51.788;8.824;2023-05-13T05:18:21;6.90;;;5.03;;
74612;SDS011;63119;51.788;8.824;2023-05-13T05:20:46;8.43;;;5.23;;
74612;SDS011;63119;51.788;8.824;2023-05-13T05:23:12;13.07;;;6.00;;
74612;SDS011;63119;51.788;8.824;2023-05-13T05:25:37;7.47;;;4.83;;
74612;SDS011;63119;51.788;8.824;2023-05-13T05:28:02;7.27;;;5.17;;
74612;SDS011;63119;51.788;8.824;2023-05-13T05:30:29;10.55;;;5.65;;
74612;SDS011;63119;51.788;8.824;2023-05-13T05:32:56;7.35;;;4.75;;
74612;SDS011;63119;51.788;8.824;2023-05-13T05:35:22;7.78;;;4.85;;
74612;SDS011;63119;51.788;8.824;2023-05-13T05:37:47;9.73;;;5.53;;
74612;SDS011;63119;51.788;8.824;2023-05-13T05:40:12;9.33;;;4.87;;
74612;SDS011;63119;51.788;8.824;2023-05-13T05:42:38;7.13;;;5.00;;
74612;SDS011;63119;51.788;8.824;2023-05-13T05:45:03;11.60;;;5.00;;
74612;SDS011;63119;51.788;8.824;2023-05-13T05:47:28;9.75;;;4.97;;
74612;SDS011;63119;51.788;8.824;2023-05-13T05:49:54;8.38;;;5.20;;
74612;SDS011;63119;51.788;8.824;2023-05-13T05:52:19;9.10;;;5.53;;
74612;SDS011;63119;51.788;8.824;2023-05-13T05:54:44;8.77;;;5.27;;
74612;SDS011;63119;51.788;8.824;2023-05-13T05:57:10;9.10;;;5.10;;
74612;SDS011;63119;51.788;8.824;2023-05-13T05:59:35;7.33;;;5.40;;
74612;SDS011;63119;51.788;8.824;2023-05-13T06:02:00;10.13;;;5.70;;
74612;SDS011;63119;51.788;8.824;2023-05-13T06:04:25;9.10;;;5.53;;
74612;SDS011;63119;51.788;8.824;2023-05-13T06:06:51;8.97;;;5.53;;
74612;SDS011;63119;51.788;8.824;2023-05-13T06:09:16;10.30;;;6.50;;
74612;SDS011;63119;51.788;8.824;2023-05-13T06:11:41;11.93;;;6.17;;
74612;SDS011;63119;51.788;8.824;2023-05-13T06:14:06;15.87;;;5.67;;
74612;SDS011;63119;51.788;8.824;2023-05-13T06:16:32;11.00;;;5.43;;
74612;SDS011;63119;51.788;8.824;2023-05-13T06:18:57;8.37;;;5.40;;
74612;SDS011;63119;51.788;8.824;2023-05-13T06:21:22;9.13;;;5.07;;
74612;SDS011;63119;51.788;8.824;2023-05-13T06:23:47;8.13;;;4.87;;
74612;SDS011;63119;51.788;8.824;2023-05-13T06:26:13;8.68;;;5.38;;
74612;SDS011;63119;51.788;8.824;2023-05-13T06:28:38;8.00;;;5.03;;
74612;SDS011;63119;51.788;8.824;2023-05-13T06:31:04;9.10;;;5.27;;
74612;SDS011;63119;51.788;8.824;2023-05-13T06:33:29;7.95;;;4.28;;
74612;SDS011;63119;51.788;8.824;2023-05-13T06:35:54;8.30;;;4.10;;
74612;SDS011;63119;51.788;8.824;2023-05-13T06:38:19;7.80;;;4.50;;
74612;SDS011;63119;51.788;8.824;2023-05-13T06:40:45;8.03;;;4.50;;
74612;SDS011;63119;51.788;8.824;2023-05-13T06:43:10;7.83;;;3.90;;
74612;SDS011;63119;51.788;8.824;2023-05-13T06:48:03;8.43;;;5.00;;
74612;SDS011;63119;51.788;8.824;2023-05-13T06:50:28;7.13;;;4.43;;
74612;SDS011;63119;51.788;8.824;2023-05-13T06:52:54;7.47;;;4.00;;
74612;SDS011;63119;51.788;8.824;2023-05-13T06:55:19;8.53;;;4.27;;
74612;SDS011;63119;51.788;8.824;2023-05-13T06:57:45;7.57;;;4.20;;
74612;SDS011;63119;51.788;8.824;2023-05-13T07:00:11;7.82;;;4.20;;
74612;SDS011;63119;51.788;8.824;2023-05-13T07:02:37;6.75;;;4.43;;
74612;SDS011;63119;51.788;8.824;2023-05-13T07:05:03;7.90;;;3.92;;
74612;SDS011;63119;51.788;8.824;2023-05-13T07:07:28;7.03;;;4.35;;
74612;SDS011;63119;51.788;8.824;2023-05-13T07:09:54;6.43;;;4.03;;
74612;SDS011;63119;51.788;8.824;2023-05-13T07:12:19;8.10;;;4.20;;
74612;SDS011;63119;51.788;8.824;2023-05-13T07:14:44;5.33;;;3.67;;
74612;SDS011;63119;51.788;8.824;2023-05-13T07:17:09;7.47;;;3.57;;
74612;SDS011;63119;51.788;8.824;2023-05-13T07:19:35;6.10;;;4.10;;
74612;SDS011;63119;51.788;8.824;2023-05-13T07:22:00;4.97;;;3.60;;
74612;SDS011;63119;51.788;8.824;2023-05-13T07:24:26;5.30;;;4.00;;
74612;SDS011;63119;51.788;8.824;2023-05-13T07:26:51;7.63;;;3.90;;
74612;SDS011;63119;51.788;8.824;2023-05-13T07:29:16;6.37;;;3.80;;
74612;SDS011;63119;51.788;8.824;2023-05-13T07:31:42;5.80;;;3.57;;
74612;SDS011;63119;51.788;8.824;2023-05-13T07:34:07;6.70;;;3.63;;
74612;SDS011;63119;51.788;8.824;2023-05-13T07:36:32;5.50;;;4.17;;
74612;SDS011;63119;51.788;8.824;2023-05-13T07:38:57;6.37;;;3.83;;
74612;SDS011;63119;51.788;8.824;2023-05-13T07:41:22;5.97;;;3.40;;
74612;SDS011;63119;51.788;8.824;2023-05-13T07:43:48;7.17;;;3.83;;
74612;SDS011;63119;51.788;8.824;2023-05-13T07:46:13;5.73;;;3.50;;
74612;SDS011;63119;51.788;8.824;2023-05-13T07:48:39;5.75;;;3.80;;
74612;SDS011;63119;51.788;8.824;2023-05-13T07:51:05;7.00;;;3.70;;
74612;SDS011;63119;51.788;8.824;2023-05-13T07:53:30;6.65;;;3.38;;
74612;SDS011;63119;51.788;8.824;2023-05-13T07:55:55;5.83;;;3.00;;
74612;SDS011;63119;51.788;8.824;2023-05-13T07:58:20;6.83;;;3.13;;
74612;SDS011;63119;51.788;8.824;2023-05-13T08:00:46;8.27;;;3.58;;
74612;SDS011;63119;51.788;8.824;2023-05-13T08:03:13;9.38;;;3.85;;
74612;SDS011;63119;51.788;8.824;2023-05-13T08:05:39;7.43;;;3.60;;
74612;SDS011;63119;51.788;8.824;2023-05-13T08:08:05;6.50;;;3.40;;
74612;SDS011;63119;51.788;8.824;2023-05-13T08:10:30;5.73;;;3.67;;
74612;SDS011;63119;51.788;8.824;2023-05-13T08:12:56;5.68;;;3.20;;
74612;SDS011;63119;51.788;8.824;2023-05-13T08:15:22;7.68;;;3.55;;
74612;SDS011;63119;51.788;8.824;2023-05-13T08:17:47;6.47;;;3.95;;
74612;SDS011;63119;51.788;8.824;2023-05-13T08:20:13;6.32;;;3.65;;
74612;SDS011;63119;51.788;8.824;2023-05-13T08:22:39;7.97;;;3.80;;
74612;SDS011;63119;51.788;8.824;2023-05-13T08:25:04;4.90;;;3.40;;
74612;SDS011;63119;51.788;8.824;2023-05-13T08:27:30;6.15;;;3.60;;
74612;SDS011;63119;51.788;8.824;2023-05-13T08:29:55;4.60;;;2.90;;
74612;SDS011;63119;51.788;8.824;2023-05-13T08:32:20;6.97;;;3.33;;
74612;SDS011;63119;51.788;8.824;2023-05-13T08:34:46;6.28;;;3.38;;
74612;SDS011;63119;51.788;8.824;2023-05-13T08:37:11;4.82;;;2.97;;
74612;SDS011;63119;51.788;8.824;2023-05-13T08:39:37;4.30;;;2.87;;
74612;SDS011;63119;51.788;8.824;2023-05-13T08:42:02;5.97;;;3.50;;
74612;SDS011;63119;51.788;8.824;2023-05-13T08:44:28;5.10;;;3.22;;
74612;SDS011;63119;51.788;8.824;2023-05-13T08:46:59;4.32;;;3.05;;
74612;SDS011;63119;51.788;8.824;2023-05-13T08:49:29;7.63;;;3.40;;
74612;SDS011;63119;51.788;8.824;2023-05-13T08:51:55;4.30;;;3.03;;
74612;SDS011;63119;51.788;8.824;2023-05-13T08:54:20;5.10;;;2.97;;
74612;SDS011;63119;51.788;8.824;2023-05-13T08:56:47;4.50;;;3.05;;
74612;SDS011;63119;51.788;8.824;2023-05-13T08:59:12;6.20;;;3.27;;
74612;SDS011;63119;51.788;8.824;2023-05-13T09:01:37;9.23;;;3.17;;
74612;SDS011;63119;51.788;8.824;2023-05-13T09:04:05;6.10;;;3.40;;
74612;SDS011;63119;51.788;8.824;2023-05-13T09:06:33;4.13;;;2.88;;
74612;SDS011;63119;51.788;8.824;2023-05-13T09:08:58;4.97;;;3.10;;
74612;SDS011;63119;51.788;8.824;2023-05-13T09:11:23;4.95;;;2.97;;
74612;SDS011;63119;51.788;8.824;2023-05-13T09:13:57;4.80;;;2.78;;
74612;SDS011;63119;51.788;8.824;2023-05-13T09:16:23;3.40;;;2.67;;
74612;SDS011;63119;51.788;8.824;2023-05-13T09:18:49;5.57;;;2.72;;
74612;SDS011;63119;51.788;8.824;2023-05-13T09:21:20;5.13;;;3.33;;
74612;SDS011;63119;51.788;8.824;2023-05-13T09:23:47;5.00;;;2.72;;
74612;SDS011;63119;51.788;8.824;2023-05-13T09:26:25;4.37;;;3.03;;
74612;SDS011;63119;51.788;8.824;2023-05-13T09:29:12;6.20;;;3.50;;
74612;SDS011;63119;51.788;8.824;2023-05-13T09:31:45;6.45;;;3.55;;
74612;SDS011;63119;51.788;8.824;2023-05-13T09:34:13;4.72;;;3.33;;
74612;SDS011;63119;51.788;8.824;2023-05-13T09:36:38;4.35;;;2.70;;
74612;SDS011;63119;51.788;8.824;2023-05-13T09:39:05;5.55;;;2.75;;
74612;SDS011;63119;51.788;8.824;2023-05-13T09:41:31;4.30;;;2.70;;
74612;SDS011;63119;51.788;8.824;2023-05-13T09:43:57;5.82;;;2.70;;
74612;SDS011;63119;51.788;8.824;2023-05-13T09:46:26;5.22;;;2.53;;
74612;SDS011;63119;51.788;8.824;2023-05-13T09:48:51;3.73;;;2.83;;
74612;SDS011;63119;51.788;8.824;2023-05-13T09:51:24;6.18;;;3.17;;
74612;SDS011;63119;51.788;8.824;2023-05-13T09:53:51;4.82;;;2.72;;
74612;SDS011;63119;51.788;8.824;2023-05-13T09:56:17;3.97;;;2.60;;
74612;SDS011;63119;51.788;8.824;2023-05-13T09:58:49;5.82;;;2.72;;
74612;SDS011;63119;51.788;8.824;2023-05-13T10:01:16;5.60;;;2.72;;
74612;SDS011;63119;51.788;8.824;2023-05-13T10:03:41;5.13;;;2.75;;
74612;SDS011;63119;51.788;8.824;2023-05-13T10:06:07;6.97;;;2.80;;
74612;SDS011;63119;51.788;8.824;2023-05-13T10:08:32;4.47;;;3.00;;
74612;SDS011;63119;51.788;8.824;2023-05-13T10:10:59;5.50;;;2.80;;
74612;SDS011;63119;51.788;8.824;2023-05-13T10:13:24;4.90;;;2.90;;
74612;SDS011;63119;51.788;8.824;2023-05-13T10:15:51;4.90;;;2.58;;
74612;SDS011;63119;51.788;8.824;2023-05-13T10:18:17;9.68;;;2.72;;
74612;SDS011;63119;51.788;8.824;2023-05-13T10:20:44;7.55;;;2.90;;
74612;SDS011;63119;51.788;8.824;2023-05-13T10:23:10;9.50;;;3.42;;
74612;SDS011;63119;51.788;8.824;2023-05-13T10:25:36;4.07;;;2.60;;
74612;SDS011;63119;51.788;8.824;2023-05-13T10:28:02;4.80;;;3.15;;
74612;SDS011;63119;51.788;8.824;2023-05-13T10:30:29;5.38;;;2.67;;
74612;SDS011;63119;51.788;8.824;2023-05-13T10:32:56;4.85;;;3.28;;
74612;SDS011;63119;51.788;8.824;2023-05-13T10:35:26;4.97;;;3.15;;
74612;SDS011;63119;51.788;8.824;2023-05-13T10:38:00;5.90;;;2.92;;
74612;SDS011;63119;51.788;8.824;2023-05-13T10:40:55;4.40;;;2.92;;
74612;SDS011;63119;51.788;8.824;2023-05-13T10:43:27;4.15;;;3.30;;
74612;SDS011;63119;51.788;8.824;2023-05-13T10:46:11;6.90;;;2.78;;
74612;SDS011;63119;51.788;8.824;2023-05-13T10:48:57;8.23;;;3.47;;
74612;SDS011;63119;51.788;8.824;2023-05-13T10:51:23;5.35;;;3.10;;
74612;SDS011;63119;51.788;8.824;2023-05-13T10:53:50;5.72;;;3.42;;
74612;SDS011;63119;51.788;8.824;2023-05-13T10:56:25;4.30;;;2.92;;
74612;SDS011;63119;51.788;8.824;2023-05-13T10:58:58;5.30;;;2.92;;
74612;SDS011;63119;51.788;8.824;2023-05-13T11:01:37;4.85;;;2.78;;
74612;SDS011;63119;51.788;8.824;2023-05-13T11:06:37;4.95;;;2.92;;
74612;SDS011;63119;51.788;8.824;2023-05-13T11:09:07;3.85;;;2.78;;
74612;SDS011;63119;51.788;8.824;2023-05-13T11:11:36;4.72;;;2.63;;
74612;SDS011;63119;51.788;8.824;2023-05-13T11:14:15;4.93;;;2.97;;
74612;SDS011;63119;51.788;8.824;2023-05-13T11:16:46;5.50;;;3.20;;
74612;SDS011;63119;51.788;8.824;2023-05-13T11:19:27;5.47;;;2.95;;
74612;SDS011;63119;51.788;8.824;2023-05-13T11:21:56;5.25;;;3.10;;
74612;SDS011;63119;51.788;8.824;2023-05-13T11:24:23;6.18;;;2.75;;
74612;SDS011;63119;51.788;8.824;2023-05-13T11:26:52;4.30;;;2.90;;
74612;SDS011;63119;51.788;8.824;2023-05-13T11:29:26;9.75;;;3.33;;
74612;SDS011;63119;51.788;8.824;2023-05-13T11:31:58;6.45;;;3.00;;
74612;SDS011;63119;51.788;8.824;2023-05-13T11:34:25;4.85;;;3.03;;
74612;SDS011;63119;51.788;8.824;2023-05-13T11:39:31;4.55;;;2.80;;
74612;SDS011;63119;51.788;8.824;2023-05-13T11:41:57;4.70;;;2.55;;
74612;SDS011;63119;51.788;8.824;2023-05-13T11:44:25;3.55;;;2.60;;
74612;SDS011;63119;51.788;8.824;2023-05-13T11:52:05;5.43;;;2.80;;
74612;SDS011;63119;51.788;8.824;2023-05-13T11:54:39;5.30;;;3.05;;
74612;SDS011;63119;51.788;8.824;2023-05-13T12:02:32;6.75;;;2.80;;
74612;SDS011;63119;51.788;8.824;2023-05-13T12:05:00;4.18;;;2.42;;
74612;SDS011;63119;51.788;8.824;2023-05-13T12:07:28;7.07;;;2.42;;
74612;SDS011;63119;51.788;8.824;2023-05-13T12:09:55;6.00;;;3.20;;
74612;SDS011;63119;51.788;8.824;2023-05-13T12:12:21;4.72;;;2.80;;
74612;SDS011;63119;51.788;8.824;2023-05-13T12:14:47;4.50;;;2.72;;
74612;SDS011;63119;51.788;8.824;2023-05-13T12:17:16;3.58;;;2.67;;
74612;SDS011;63119;51.788;8.824;2023-05-13T12:28:21;7.18;;;3.40;;
74612;SDS011;63119;51.788;8.824;2023-05-13T12:30:48;7.78;;;3.15;;
74612;SDS011;63119;51.788;8.824;2023-05-13T12:33:19;5.97;;;3.40;;
74612;SDS011;63119;51.788;8.824;2023-05-13T12:35:49;5.93;;;2.80;;
74612;SDS011;63119;51.788;8.824;2023-05-13T12:38:16;4.05;;;3.10;;
74612;SDS011;63119;51.788;8.824;2023-05-13T12:40:44;5.68;;;2.80;;
74612;SDS011;63119;51.788;8.824;2023-05-13T12:43:10;4.25;;;2.70;;
74612;SDS011;63119;51.788;8.824;2023-05-13T12:45:36;8.57;;;3.58;;
74612;SDS011;63119;51.788;8.824;2023-05-13T12:48:04;4.20;;;2.97;;
74612;SDS011;63119;51.788;8.824;2023-05-13T12:50:29;5.50;;;2.83;;
74612;SDS011;63119;51.788;8.824;2023-05-13T12:52:55;6.93;;;3.10;;
74612;SDS011;63119;51.788;8.824;2023-05-13T12:55:21;6.10;;;3.42;;
74612;SDS011;63119;51.788;8.824;2023-05-13T12:57:59;4.18;;;2.70;;
74612;SDS011;63119;51.788;8.824;2023-05-13T13:00:26;5.93;;;3.22;;
74612;SDS011;63119;51.788;8.824;2023-05-13T13:02:51;5.63;;;2.88;;
74612;SDS011;63119;51.788;8.824;2023-05-13T13:05:17;4.88;;;2.92;;
74612;SDS011;63119;51.788;8.824;2023-05-13T13:07:43;5.55;;;2.85;;
74612;SDS011;63119;51.788;8.824;2023-05-13T13:10:08;9.73;;;3.30;;
74612;SDS011;63119;51.788;8.824;2023-05-13T13:12:35;5.47;;;3.40;;
74612;SDS011;63119;51.788;8.824;2023-05-13T13:15:00;6.60;;;3.00;;
74612;SDS011;63119;51.788;8.824;2023-05-13T13:17:26;4.63;;;3.08;;
74612;SDS011;63119;51.788;8.824;2023-05-13T13:19:51;6.43;;;3.30;;
74612;SDS011;63119;51.788;8.824;2023-05-13T13:22:16;5.63;;;3.17;;
74612;SDS011;63119;51.788;8.824;2023-05-13T13:24:41;6.20;;;2.63;;
74612;SDS011;63119;51.788;8.824;2023-05-13T13:27:07;8.00;;;2.90;;
74612;SDS011;63119;51.788;8.824;2023-05-13T13:29:33;5.53;;;3.00;;
74612;SDS011;63119;51.788;8.824;2023-05-13T13:31:59;7.40;;;2.63;;
74612;SDS011;63119;51.788;8.824;2023-05-13T13:34:24;5.80;;;2.80;;
74612;SDS011;63119;51.788;8.824;2023-05-13T13:36:49;4.73;;;2.60;;
74612;SDS011;63119;51.788;8.824;2023-05-13T13:39:14;5.10;;;2.10;;
74612;SDS011;63119;51.788;8.824;2023-05-13T13:41:40;5.90;;;2.43;;
74612;SDS011;63119;51.788;8.824;2023-05-13T13:44:06;3.40;;;2.33;;
74612;SDS011;63119;51.788;8.824;2023-05-13T13:46:31;5.03;;;2.70;;
74612;SDS011;63119;51.788;8.824;2023-05-13T13:48:57;4.80;;;2.60;;
74612;SDS011;63119;51.788;8.824;2023-05-13T13:51:22;4.77;;;2.63;;
74612;SDS011;63119;51.788;8.824;2023-05-13T13:53:48;3.13;;;2.13;;
74612;SDS011;63119;51.788;8.824;2023-05-13T13:56:13;4.22;;;2.20;;
74612;SDS011;63119;51.788;8.824;2023-05-13T13:58:38;3.77;;;2.43;;
74612;SDS011;63119;51.788;8.824;2023-05-13T14:01:04;3.63;;;2.75;;
74612;SDS011;63119;51.788;8.824;2023-05-13T14:03:29;4.30;;;2.70;;
74612;SDS011;63119;51.788;8.824;2023-05-13T14:05:54;3.00;;;2.30;;
74612;SDS011;63119;51.788;8.824;2023-05-13T14:08:20;4.18;;;2.60;;
74612;SDS011;63119;51.788;8.824;2023-05-13T14:10:45;2.97;;;2.10;;
74612;SDS011;63119;51.788;8.824;2023-05-13T14:13:10;4.60;;;2.37;;
74612;SDS011;63119;51.788;8.824;2023-05-13T14:15:36;5.20;;;2.47;;
74612;SDS011;63119;51.788;8.824;2023-05-13T14:18:03;4.55;;;2.30;;
74612;SDS011;63119;51.788;8.824;2023-05-13T14:22:57;3.33;;;2.08;;
74612;SDS011;63119;51.788;8.824;2023-05-13T14:25:23;3.50;;;2.27;;
74612;SDS011;63119;51.788;8.824;2023-05-13T14:27:48;5.23;;;2.37;;
74612;SDS011;63119;51.788;8.824;2023-05-13T14:30:13;4.70;;;2.53;;
74612;SDS011;63119;51.788;8.824;2023-05-13T14:32:39;6.30;;;2.87;;
74612;SDS011;63119;51.788;8.824;2023-05-13T14:35:08;3.53;;;2.42;;
74612;SDS011;63119;51.788;8.824;2023-05-13T14:37:34;6.22;;;2.85;;
74612;SDS011;63119;51.788;8.824;2023-05-13T14:39:59;4.83;;;2.37;;
74612;SDS011;63119;51.788;8.824;2023-05-13T14:42:24;5.23;;;2.83;;
74612;SDS011;63119;51.788;8.824;2023-05-13T14:44:49;5.00;;;3.07;;
74612;SDS011;63119;51.788;8.824;2023-05-13T14:47:15;7.80;;;2.57;;
74612;SDS011;63119;51.788;8.824;2023-05-13T14:49:40;7.13;;;2.40;;
74612;SDS011;63119;51.788;8.824;2023-05-13T14:52:05;4.00;;;2.47;;
74612;SDS011;63119;51.788;8.824;2023-05-13T14:54:31;4.27;;;2.43;;
74612;SDS011;63119;51.788;8.824;2023-05-13T14:56:59;3.72;;;2.60;;
74612;SDS011;63119;51.788;8.824;2023-05-13T14:59:25;6.53;;;2.85;;
74612;SDS011;63119;51.788;8.824;2023-05-13T15:01:53;4.65;;;2.05;;
74612;SDS011;63119;51.788;8.824;2023-05-13T15:04:18;5.73;;;2.73;;
74612;SDS011;63119;51.788;8.824;2023-05-13T15:06:43;6.63;;;2.50;;
74612;SDS011;63119;51.788;8.824;2023-05-13T15:09:08;5.40;;;2.93;;
74612;SDS011;63119;51.788;8.824;2023-05-13T15:11:34;5.27;;;2.40;;
74612;SDS011;63119;51.788;8.824;2023-05-13T15:14:00;2.95;;;2.17;;
74612;SDS011;63119;51.788;8.824;2023-05-13T15:16:25;5.00;;;2.40;;
74612;SDS011;63119;51.788;8.824;2023-05-13T15:18:50;3.67;;;2.00;;
74612;SDS011;63119;51.788;8.824;2023-05-13T15:21:16;3.75;;;2.20;;
74612;SDS011;63119;51.788;8.824;2023-05-13T15:23:41;4.20;;;2.40;;